Terminal Aerodrome Forecast
Issued by NWS

Current Version | Previous Version | Graphics & Text | Print | Product List | Glossary On
Versions: 1 2 3 4 5 6 7 8 9 10 11 12 13 14 15 16 17 18 19 20 21 22 23 24 25
581
FTUS41 KILN 271921 AAA
TAFLCK
TAF AMD
KLCK 271921Z 2719/2818 05006KT P6SM OVC020
     FM272100 05010KT P6SM BKN025
     FM280600 07006KT 5SM -SHRA OVC015
     FM281000 11005KT 3SM BR VCSH OVC008
     FM281400 22006KT P6SM OVC015=

USA.gov is the U.S. government's official web portal to all federal, state and local government web resources and services.